createdAt,value
2019-03-29T00:00:10.091Z,7.80
2019-03-29T00:05:13.547Z,7.50
2019-03-29T00:10:18.368Z,7.10
2019-03-29T00:15:22.718Z,6.80
2019-03-29T00:20:28.047Z,6.40
2019-03-29T00:25:33.116Z,6.20
2019-03-29T00:30:37.705Z,5.90
2019-03-29T00:35:42.771Z,5.70
2019-03-29T00:40:47.477Z,5.50
2019-03-29T00:45:50.747Z,5.40
2019-03-29T00:50:55.092Z,5.20
2019-03-29T00:56:00.286Z,5.10
2019-03-29T01:01:05.018Z,5.00
2019-03-29T01:06:09.728Z,4.90
2019-03-29T01:11:13.193Z,4.80
2019-03-29T01:16:17.889Z,4.70
2019-03-29T01:21:21.221Z,4.60
2019-03-29T01:26:27.038Z,4.50
2019-03-29T01:31:33.435Z,4.40
2019-03-29T01:36:40.539Z,4.40
2019-03-29T01:41:44.892Z,4.30
2019-03-29T01:46:49.756Z,4.20
2019-03-29T01:51:54.385Z,4.10
2019-03-29T01:56:57.681Z,4.00
2019-03-29T02:02:02.297Z,4.00
2019-03-29T02:07:05.559Z,3.90
2019-03-29T02:12:10.110Z,3.70
2019-03-29T02:17:13.280Z,3.60
2019-03-29T02:22:17.626Z,3.50
2019-03-29T02:27:23.257Z,3.40
2019-03-29T02:32:29.736Z,3.50
2019-03-29T02:37:34.196Z,3.40
2019-03-29T02:42:38.688Z,3.30
2019-03-29T02:47:43.105Z,3.30
2019-03-29T02:52:47.536Z,3.20
2019-03-29T02:57:52.091Z,3.20
2019-03-29T03:02:56.831Z,3.00
2019-03-29T03:08:01.215Z,3.00
2019-03-29T03:13:05.748Z,3.00
2019-03-29T03:18:10.023Z,3.00
2019-03-29T03:23:17.586Z,2.90
2019-03-29T03:28:22.294Z,2.90
2019-03-29T03:33:27.231Z,2.90
2019-03-29T03:38:31.759Z,2.80
2019-03-29T03:43:36.126Z,3.00
2019-03-29T03:48:40.426Z,2.90
2019-03-29T03:53:45.103Z,2.80
2019-03-29T03:58:49.745Z,2.70
2019-03-29T04:03:54.059Z,2.60
2019-03-29T04:08:58.684Z,2.50
2019-03-29T04:14:03.595Z,2.40
2019-03-29T04:19:07.960Z,2.30
2019-03-29T04:24:12.916Z,2.30
2019-03-29T04:29:17.261Z,2.20
2019-03-29T04:34:21.587Z,2.10
2019-03-29T04:39:25.950Z,2.10
2019-03-29T04:44:31.850Z,2.00
2019-03-29T04:49:38.548Z,2.00
2019-03-29T04:54:44.029Z,2.00
2019-03-29T04:59:48.331Z,1.90
2019-03-29T05:04:52.746Z,2.00
2019-03-29T05:09:57.351Z,1.90
2019-03-29T05:15:02.255Z,1.80
2019-03-29T05:20:07.664Z,1.80
2019-03-29T05:25:11.977Z,1.70
2019-03-29T05:30:16.290Z,1.80
2019-03-29T05:35:20.926Z,1.80
2019-03-29T05:40:34.885Z,2.00
2019-03-29T05:45:31.848Z,2.60
2019-03-29T05:50:37.048Z,3.50
2019-03-29T05:55:41.896Z,4.70
2019-03-29T06:00:46.413Z,5.50
2019-03-29T06:05:49.622Z,6.50
2019-03-29T06:10:53.941Z,7.40
2019-03-29T06:15:58.256Z,8.30
2019-03-29T06:21:03.097Z,8.90
2019-03-29T06:26:07.478Z,9.60
2019-03-29T06:31:11.828Z,10.20
2019-03-29T06:36:16.193Z,10.80
2019-03-29T06:41:23.381Z,11.60
2019-03-29T06:46:27.795Z,12.70
2019-03-29T06:51:32.208Z,13.50
2019-03-29T06:56:38.359Z,13.90
2019-03-29T07:01:42.819Z,13.50
2019-03-29T07:06:47.464Z,14.00
2019-03-29T07:11:52.457Z,14.60
2019-03-29T07:16:57.355Z,15.00
2019-03-29T07:22:02.312Z,15.70
2019-03-29T07:27:06.778Z,16.40
2019-03-29T07:32:12.135Z,17.20
2019-03-29T07:37:16.520Z,18.00
2019-03-29T07:42:21.353Z,18.30
2019-03-29T07:47:26.647Z,18.70
2019-03-29T07:52:31.253Z,19.00
2019-03-29T07:57:35.691Z,19.50
2019-03-29T08:02:40.543Z,20.20
2019-03-29T08:07:44.887Z,20.70
2019-03-29T08:12:49.802Z,21.10
2019-03-29T08:17:54.245Z,21.00
2019-03-29T08:22:58.691Z,20.70
2019-03-29T08:28:03.245Z,20.80
2019-03-29T08:33:08.384Z,20.70
2019-03-29T08:38:13.766Z,21.00
2019-03-29T08:43:18.075Z,21.20
2019-03-29T08:48:23.545Z,21.60
2019-03-29T08:53:28.186Z,22.10
2019-03-29T08:58:33.103Z,22.60
2019-03-29T09:03:37.407Z,23.00
2019-03-29T09:08:41.955Z,23.00
2019-03-29T09:13:46.597Z,23.50
2019-03-29T09:18:51.679Z,23.50
2019-03-29T09:23:56.082Z,23.70
2019-03-29T09:29:00.653Z,23.50
2019-03-29T09:34:04.945Z,23.90
2019-03-29T09:39:09.666Z,23.80
2019-03-29T09:44:14.026Z,23.80
2019-03-29T09:49:18.403Z,23.30
2019-03-29T09:54:24.476Z,23.00
2019-03-29T09:59:28.778Z,23.00
2019-03-29T10:04:33.182Z,23.00
2019-03-29T10:09:37.450Z,22.50
2019-03-29T10:14:42.228Z,22.40
2019-03-29T10:19:45.467Z,22.20
2019-03-29T10:24:51.034Z,21.90
2019-03-29T10:29:55.421Z,21.70
2019-03-29T10:34:59.758Z,22.20
2019-03-29T10:40:04.278Z,22.50
2019-03-29T10:45:09.313Z,22.50
2019-03-29T10:50:14.478Z,22.80
2019-03-29T10:55:18.799Z,22.80
2019-03-29T11:00:40.404Z,22.30
2019-03-29T11:05:44.811Z,22.20
2019-03-29T11:10:50.412Z,21.90
2019-03-29T11:15:54.791Z,22.10
2019-03-29T11:20:59.656Z,22.20
2019-03-29T11:26:04.353Z,22.10
2019-03-29T11:31:07.812Z,22.00
2019-03-29T11:36:14.571Z,21.20
2019-03-29T11:41:18.905Z,20.80
2019-03-29T11:46:26.673Z,20.80
2019-03-29T11:51:34.831Z,21.10
2019-03-29T11:56:39.253Z,21.20
2019-03-29T12:01:44.385Z,20.90
2019-03-29T12:06:49.181Z,20.60
2019-03-29T12:11:53.816Z,20.20
2019-03-29T12:16:58.408Z,20.00
2019-03-29T12:22:02.681Z,19.80
2019-03-29T12:27:07.685Z,19.40
2019-03-29T12:32:12.190Z,19.00
2019-03-29T12:37:19.503Z,18.30
2019-03-29T12:42:24.897Z,17.70
2019-03-29T12:47:29.196Z,17.30
2019-03-29T12:52:33.542Z,17.10
2019-03-29T12:57:39.075Z,17.00
2019-03-29T13:02:49.350Z,16.80
2019-03-29T13:07:53.892Z,16.70
2019-03-29T13:13:00.752Z,16.70
2019-03-29T13:18:13.357Z,16.70
2019-03-29T13:23:17.716Z,16.60
2019-03-29T13:28:22.267Z,16.60
2019-03-29T13:33:26.744Z,16.60
2019-03-29T13:38:31.102Z,16.60
2019-03-29T13:43:35.683Z,16.50
2019-03-29T13:48:40.209Z,16.60
2019-03-29T13:53:44.570Z,16.60
2019-03-29T13:58:49.803Z,16.60
2019-03-29T14:03:55.960Z,16.60
2019-03-29T14:09:01.877Z,16.60
2019-03-29T14:14:10.306Z,16.60
2019-03-29T14:19:19.791Z,16.50
2019-03-29T14:24:25.835Z,16.50
2019-03-29T14:29:31.535Z,16.40
2019-03-29T14:34:42.712Z,16.50
2019-03-29T14:39:51.448Z,16.50
2019-03-29T14:44:57.986Z,16.40
2019-03-29T14:50:06.990Z,16.30
2019-03-29T14:55:15.151Z,16.20
2019-03-29T15:00:42.761Z,16.10
2019-03-29T15:05:47.179Z,16.10
2019-03-29T15:10:51.536Z,16.20
2019-03-29T15:15:55.915Z,16.10
2019-03-29T15:21:03.325Z,16.00
2019-03-29T15:26:08.022Z,16.10
2019-03-29T15:31:11.554Z,16.10
2019-03-29T15:36:19.876Z,16.00
2019-03-29T15:41:24.244Z,16.00
2019-03-29T15:46:28.690Z,15.90
2019-03-29T15:51:33.043Z,15.90
2019-03-29T15:56:37.745Z,15.80
2019-03-29T16:01:45.070Z,15.70
2019-03-29T16:06:53.501Z,15.70
2019-03-29T16:12:02.450Z,15.70
2019-03-29T16:17:07.179Z,15.50
2019-03-29T16:22:12.823Z,15.40
2019-03-29T16:27:16.354Z,15.30
2019-03-29T16:32:20.746Z,15.20
2019-03-29T16:37:27.289Z,15.20
2019-03-29T16:42:33.215Z,15.10
2019-03-29T16:47:37.888Z,15.00
2019-03-29T16:52:41.927Z,14.90
2019-03-29T16:57:46.402Z,14.90
2019-03-29T17:02:52.338Z,14.90
2019-03-29T17:07:58.447Z,14.80
2019-03-29T17:13:02.838Z,14.70
2019-03-29T17:18:07.294Z,14.60
2019-03-29T17:23:11.707Z,14.60
2019-03-29T17:28:16.154Z,14.50
2019-03-29T17:33:22.374Z,14.30
2019-03-29T17:38:26.746Z,14.20
2019-03-29T17:43:31.176Z,14.00
2019-03-29T17:48:35.516Z,13.70
2019-03-29T17:53:40.239Z,13.50
2019-03-29T17:58:43.810Z,13.30
2019-03-29T18:03:48.503Z,12.90
2019-03-29T18:08:52.891Z,12.40
2019-03-29T18:13:58.104Z,12.00
2019-03-29T18:19:02.683Z,11.60
2019-03-29T18:24:08.812Z,11.30
2019-03-29T18:29:13.171Z,10.90
2019-03-29T18:34:17.491Z,10.70
2019-03-29T18:39:21.816Z,10.40
2019-03-29T18:44:26.128Z,10.20
2019-03-29T18:49:30.762Z,9.90
2019-03-29T18:54:35.030Z,9.70
2019-03-29T18:59:40.580Z,9.50
2019-03-29T19:04:44.869Z,9.30
2019-03-29T19:09:49.455Z,9.20
2019-03-29T19:14:55.313Z,9.10
2019-03-29T19:20:01.015Z,9.00
2019-03-29T19:25:07.380Z,8.90
2019-03-29T19:30:11.923Z,8.70
2019-03-29T19:35:16.339Z,8.60
2019-03-29T19:40:20.926Z,8.50
2019-03-29T19:45:47.992Z,8.30
2019-03-29T19:50:52.667Z,8.10
2019-03-29T19:55:56.013Z,8.00
2019-03-29T20:01:02.452Z,7.90
2019-03-29T20:06:06.567Z,7.80
2019-03-29T20:11:10.914Z,7.70
2019-03-29T20:16:16.923Z,7.60
2019-03-29T20:21:21.373Z,7.50
2019-03-29T20:26:29.086Z,7.40
2019-03-29T20:31:33.630Z,7.40
2019-03-29T20:36:48.806Z,7.20
2019-03-29T20:41:53.131Z,7.10
2019-03-29T20:46:57.483Z,7.00
2019-03-29T20:52:06.960Z,6.90
2019-03-29T20:57:11.283Z,6.80
2019-03-29T21:02:15.808Z,6.70
2019-03-29T21:07:20.633Z,6.70
2019-03-29T21:12:25.006Z,6.60
2019-03-29T21:17:29.376Z,6.50
2019-03-29T21:22:33.796Z,6.40
2019-03-29T21:27:38.908Z,6.40
2019-03-29T21:32:43.252Z,6.30
2019-03-29T21:37:48.409Z,6.20
2019-03-29T21:42:52.969Z,6.10
2019-03-29T21:48:04.884Z,6.10
2019-03-29T21:53:03.984Z,6.00
2019-03-29T21:58:09.040Z,5.90
2019-03-29T22:03:13.638Z,5.90
2019-03-29T22:08:18.230Z,5.80
2019-03-29T22:13:22.718Z,5.80
2019-03-29T22:18:37.403Z,5.70
2019-03-29T22:23:33.608Z,5.70
2019-03-29T22:28:38.086Z,5.60
2019-03-29T22:33:42.481Z,5.50
2019-03-29T22:38:47.193Z,5.50
2019-03-29T22:43:51.980Z,5.60
2019-03-29T22:48:55.267Z,5.50
2019-03-29T22:53:59.728Z,5.50
2019-03-29T22:59:04.601Z,5.40
2019-03-29T23:04:09.736Z,5.40
2019-03-29T23:09:14.496Z,5.30
2019-03-29T23:14:17.982Z,5.30
2019-03-29T23:19:22.366Z,5.20
2019-03-29T23:24:26.993Z,5.10
2019-03-29T23:29:30.542Z,4.90
2019-03-29T23:34:35.460Z,4.70
2019-03-29T23:39:40.069Z,4.70
2019-03-29T23:44:43.387Z,4.60
2019-03-29T23:49:47.659Z,4.60
2019-03-29T23:54:52.316Z,4.50
2019-03-29T23:59:55.711Z,4.40
